logo
Search for airport 
image banner adimage banner adimage banner ad
image banner ad

EHS024 - Emmer-Compascuum

Located in , Netherlands

ICAO - , IATA -

Data provided by Airmate  

General information

Coordinates: N52°48'53" E7°0'13"
Elevation is 37 feet MSL.
 
View others Airports in Groningen

Operational data

Special qualification required
Current time UTC:
Current local time:
Weather at : ETWM - Meppen ( 24 km )
METAR: ETWM 141620Z AUTO 26009G19KT //// // ////// 21/10 Q1011 ///
View NOTAMs / SUP AIP / TFR affecting this airport [VIEW]
Communications frequencies: [VIEW]

Runways:

Airport contact information

Address: Netherlands

Satellite view of EHS024